createdAt,value
2023-10-19T00:00:57.560Z,7.00
2023-10-19T00:03:27.004Z,8.23
2023-10-19T00:05:58.869Z,7.95
2023-10-19T00:08:26.154Z,6.63
2023-10-19T00:11:03.498Z,6.03
2023-10-19T00:13:31.369Z,9.65
2023-10-19T00:16:00.588Z,5.00
2023-10-19T00:18:33.732Z,7.55
2023-10-19T00:21:12.151Z,9.32
2023-10-19T00:23:41.051Z,5.63
2023-10-19T00:26:11.847Z,6.55
2023-10-19T00:28:40.385Z,6.60
2023-10-19T00:31:10.217Z,6.88
2023-10-19T00:33:40.176Z,5.88
2023-10-19T00:36:09.713Z,6.38
2023-10-19T00:38:42.679Z,7.55
2023-10-19T00:41:20.632Z,6.85
2023-10-19T00:43:50.330Z,5.50
2023-10-19T00:46:26.622Z,5.32
2023-10-19T00:48:59.255Z,4.15
2023-10-19T00:51:42.001Z,6.50
2023-10-19T00:54:15.354Z,5.65
2023-10-19T00:59:21.601Z,4.47
2023-10-19T01:01:55.581Z,4.80
2023-10-19T01:04:33.335Z,4.28
2023-10-19T01:07:06.234Z,4.85
2023-10-19T01:09:36.583Z,4.43
2023-10-19T01:12:22.649Z,3.53
2023-10-19T01:15:08.949Z,4.38
2023-10-19T01:17:40.819Z,3.88
2023-10-19T01:20:23.124Z,4.10
2023-10-19T01:23:07.868Z,3.72
2023-10-19T01:25:47.354Z,4.90
2023-10-19T01:28:18.442Z,4.90
2023-10-19T01:30:52.659Z,5.82
2023-10-19T01:33:21.716Z,5.38
2023-10-19T01:36:07.828Z,6.07
2023-10-19T01:38:37.406Z,6.43
2023-10-19T01:41:08.605Z,7.70
2023-10-19T01:43:41.566Z,6.03
2023-10-19T01:46:23.316Z,5.43
2023-10-19T01:48:56.420Z,5.97
2023-10-19T01:51:24.885Z,6.22
2023-10-19T01:53:56.465Z,5.68
2023-10-19T01:56:24.607Z,6.70
2023-10-19T01:58:53.891Z,5.40
2023-10-19T02:01:22.072Z,5.20
2023-10-19T02:03:54.914Z,5.07
2023-10-19T02:06:27.497Z,4.80
2023-10-19T02:09:01.249Z,6.10
2023-10-19T02:11:29.857Z,4.28
2023-10-19T02:14:01.108Z,3.55
2023-10-19T02:16:30.670Z,4.25
2023-10-19T02:18:59.068Z,3.28
2023-10-19T02:21:31.667Z,3.80
2023-10-19T02:24:01.205Z,4.78
2023-10-19T02:26:28.825Z,5.85
2023-10-19T02:28:57.476Z,4.35
2023-10-19T02:31:26.339Z,5.90
2023-10-19T02:34:00.874Z,7.40
2023-10-19T02:36:30.066Z,4.82
2023-10-19T02:38:59.983Z,8.10
2023-10-19T02:41:29.494Z,14.18
2023-10-19T02:44:03.758Z,7.35
2023-10-19T02:46:31.653Z,7.07
2023-10-19T02:49:04.017Z,22.00
2023-10-19T02:51:31.374Z,5.53
2023-10-19T02:54:03.252Z,5.85
2023-10-19T02:56:31.850Z,17.92
2023-10-19T02:59:04.958Z,5.72
2023-10-19T03:01:34.813Z,5.82
2023-10-19T03:04:05.774Z,12.88
2023-10-19T03:06:34.139Z,18.83
2023-10-19T03:09:14.441Z,18.75
2023-10-19T03:11:43.733Z,34.05
2023-10-19T03:14:13.002Z,12.32
2023-10-19T03:16:43.387Z,31.67
2023-10-19T03:19:12.652Z,25.20
2023-10-19T03:21:43.772Z,21.73
2023-10-19T03:24:14.199Z,15.95
2023-10-19T03:26:49.673Z,31.27
2023-10-19T03:29:19.366Z,9.18
2023-10-19T03:31:48.565Z,18.65
2023-10-19T03:34:18.005Z,13.85
2023-10-19T03:36:46.766Z,13.40
2023-10-19T03:39:15.680Z,15.82
2023-10-19T03:41:45.753Z,11.00
2023-10-19T03:44:20.338Z,12.75
2023-10-19T03:46:59.169Z,16.92
2023-10-19T03:49:35.365Z,25.40
2023-10-19T03:52:21.206Z,19.05
2023-10-19T03:54:50.297Z,17.13
2023-10-19T03:57:26.041Z,9.45
2023-10-19T03:59:58.704Z,14.27
2023-10-19T04:02:30.031Z,17.13
2023-10-19T04:04:59.427Z,19.63
2023-10-19T04:07:28.472Z,25.23
2023-10-19T04:10:10.444Z,22.25
2023-10-19T04:12:43.556Z,14.90
2023-10-19T04:15:14.215Z,15.45
2023-10-19T04:17:43.787Z,17.70
2023-10-19T04:20:29.344Z,13.02
2023-10-19T04:22:59.062Z,37.15
2023-10-19T04:25:28.379Z,29.52
2023-10-19T04:27:58.563Z,28.95
2023-10-19T04:30:27.520Z,27.98
2023-10-19T04:32:58.919Z,13.27
2023-10-19T04:35:31.338Z,19.23
2023-10-19T04:38:01.037Z,42.20
2023-10-19T04:40:29.837Z,26.77
2023-10-19T04:43:00.901Z,41.35
2023-10-19T04:45:30.852Z,39.20
2023-10-19T04:47:59.490Z,37.50
2023-10-19T04:50:27.703Z,29.58
2023-10-19T04:52:55.919Z,31.80
2023-10-19T04:55:24.320Z,49.05
2023-10-19T04:57:52.478Z,46.92
2023-10-19T05:00:22.775Z,42.00
2023-10-19T05:02:53.312Z,31.27
2023-10-19T05:05:21.851Z,46.72
2023-10-19T05:07:50.238Z,48.25
2023-10-19T05:10:18.653Z,33.95
2023-10-19T05:12:46.898Z,44.75
2023-10-19T05:15:16.976Z,63.90
2023-10-19T05:17:46.959Z,63.00
2023-10-19T05:20:15.199Z,49.22
2023-10-19T05:22:43.526Z,108.28
2023-10-19T05:25:11.814Z,121.40
2023-10-19T05:27:40.496Z,75.50
2023-10-19T05:30:11.484Z,61.55
2023-10-19T05:32:40.086Z,70.82
2023-10-19T05:35:14.393Z,50.17
2023-10-19T05:37:42.804Z,51.97
2023-10-19T05:40:16.164Z,56.67
2023-10-19T05:42:44.525Z,51.45
2023-10-19T05:45:14.323Z,65.22
2023-10-19T05:47:42.898Z,49.20
2023-10-19T05:50:15.434Z,56.22
2023-10-19T05:52:44.031Z,77.97
2023-10-19T05:55:12.692Z,75.13
2023-10-19T05:57:42.348Z,48.10
2023-10-19T06:00:15.044Z,56.10
2023-10-19T06:02:46.338Z,56.47
2023-10-19T06:05:17.863Z,63.95
2023-10-19T06:07:46.999Z,66.97
2023-10-19T06:10:18.298Z,78.03
2023-10-19T06:12:47.913Z,61.53
2023-10-19T06:15:17.153Z,72.75
2023-10-19T06:17:47.151Z,69.68
2023-10-19T06:20:25.867Z,56.22
2023-10-19T06:22:54.796Z,49.35
2023-10-19T06:25:24.239Z,46.95
2023-10-19T06:27:53.716Z,40.83
2023-10-19T06:30:24.199Z,64.55
2023-10-19T06:32:54.042Z,47.58
2023-10-19T06:35:24.620Z,43.92
2023-10-19T06:37:52.790Z,43.28
2023-10-19T06:40:21.651Z,37.20
2023-10-19T06:42:50.402Z,36.78
2023-10-19T06:45:20.159Z,50.55
2023-10-19T06:47:49.985Z,53.55
2023-10-19T06:50:20.957Z,55.97
2023-10-19T06:52:51.335Z,64.68
2023-10-19T06:55:21.353Z,64.97
2023-10-19T06:57:50.975Z,39.15
2023-10-19T07:00:21.671Z,30.17
2023-10-19T07:02:51.937Z,41.60
2023-10-19T07:05:23.240Z,39.38
2023-10-19T07:07:55.931Z,39.55
2023-10-19T07:10:25.043Z,38.17
2023-10-19T07:12:55.685Z,35.60
2023-10-19T07:15:26.589Z,30.95
2023-10-19T07:17:56.350Z,47.42
2023-10-19T07:20:28.367Z,53.55
2023-10-19T07:23:01.663Z,38.22
2023-10-19T07:25:30.536Z,46.08
2023-10-19T07:28:01.049Z,32.45
2023-10-19T07:30:29.544Z,42.92
2023-10-19T07:33:00.017Z,54.92
2023-10-19T07:35:28.737Z,53.72
2023-10-19T07:37:58.850Z,48.05
2023-10-19T07:40:27.235Z,25.75
2023-10-19T07:42:56.208Z,34.22
2023-10-19T07:45:24.527Z,31.05
2023-10-19T07:47:53.018Z,31.13
2023-10-19T07:50:23.728Z,40.50
2023-10-19T07:52:53.472Z,28.67
2023-10-19T07:55:25.412Z,44.63
2023-10-19T07:57:53.852Z,48.75
2023-10-19T08:00:22.709Z,33.17
2023-10-19T08:02:52.669Z,33.22
2023-10-19T08:05:20.937Z,26.65
2023-10-19T08:07:49.773Z,26.27
2023-10-19T08:10:19.585Z,34.55
2023-10-19T08:12:50.362Z,29.20
2023-10-19T08:15:19.416Z,32.20
2023-10-19T08:17:49.820Z,27.08
2023-10-19T08:20:26.403Z,27.08
2023-10-19T08:22:58.285Z,25.23
2023-10-19T08:25:33.455Z,24.38
2023-10-19T08:28:07.594Z,24.58
2023-10-19T08:30:35.797Z,19.75
2023-10-19T08:33:04.720Z,20.48
2023-10-19T08:35:33.343Z,18.88
2023-10-19T08:38:01.763Z,20.10
2023-10-19T08:40:30.139Z,18.73
2023-10-19T08:42:58.362Z,23.77
2023-10-19T08:45:29.032Z,19.58
2023-10-19T08:47:58.991Z,21.73
2023-10-19T08:50:28.183Z,21.30
2023-10-19T08:52:58.005Z,23.30
2023-10-19T08:55:41.565Z,20.92
2023-10-19T08:58:17.225Z,20.08
2023-10-19T09:00:50.300Z,21.45
2023-10-19T09:03:19.513Z,20.15
2023-10-19T09:05:48.962Z,20.23
2023-10-19T09:08:19.730Z,23.25
2023-10-19T09:10:48.813Z,22.77
2023-10-19T09:13:20.312Z,22.52
2023-10-19T09:15:51.176Z,22.73
2023-10-19T09:18:20.971Z,21.83
2023-10-19T09:20:55.103Z,22.27
2023-10-19T09:23:23.866Z,21.30
2023-10-19T09:25:53.945Z,22.75
2023-10-19T09:28:23.015Z,23.33
2023-10-19T09:30:53.575Z,24.83
2023-10-19T09:33:23.575Z,23.88
2023-10-19T09:35:54.188Z,21.60
2023-10-19T09:38:23.730Z,21.65
2023-10-19T09:40:52.203Z,22.33
2023-10-19T09:43:39.917Z,21.60
2023-10-19T09:46:12.762Z,20.25
2023-10-19T09:48:44.086Z,23.90
2023-10-19T09:51:16.554Z,20.10
2023-10-19T09:53:48.648Z,19.58
2023-10-19T09:56:22.377Z,20.15
2023-10-19T09:58:55.701Z,21.20
2023-10-19T10:03:54.325Z,54.30
2023-10-19T10:06:31.047Z,41.42
2023-10-19T10:09:04.655Z,38.70
2023-10-19T10:11:33.755Z,27.30
2023-10-19T10:14:02.027Z,47.75
2023-10-19T10:16:31.762Z,246.05
2023-10-19T10:19:02.268Z,89.10
2023-10-19T10:21:31.910Z,34.30
2023-10-19T10:24:01.831Z,24.13
2023-10-19T10:26:36.533Z,23.92
2023-10-19T10:29:14.650Z,21.65
2023-10-19T10:31:48.613Z,21.02
2023-10-19T10:34:44.782Z,20.73
2023-10-19T10:37:14.575Z,20.20
2023-10-19T10:39:46.190Z,19.38
2023-10-19T10:42:17.939Z,24.10
2023-10-19T10:44:48.155Z,19.90
2023-10-19T10:47:23.151Z,57.17
2023-10-19T10:49:53.144Z,55.75
2023-10-19T10:52:33.063Z,103.03
2023-10-19T10:55:08.986Z,149.90
2023-10-19T10:57:37.841Z,42.83
2023-10-19T11:00:16.447Z,26.63
2023-10-19T11:02:48.338Z,18.85
2023-10-19T11:05:17.725Z,17.38
2023-10-19T11:08:08.254Z,15.05
2023-10-19T11:10:37.326Z,21.70
2023-10-19T11:13:07.250Z,29.10
2023-10-19T11:15:36.022Z,21.70
2023-10-19T11:18:05.997Z,30.52
2023-10-19T11:20:34.353Z,34.47
2023-10-19T11:23:03.697Z,35.10
2023-10-19T11:25:33.303Z,31.33
2023-10-19T11:28:05.995Z,25.95
2023-10-19T11:30:34.998Z,27.67
2023-10-19T11:33:07.199Z,20.92
2023-10-19T11:35:36.177Z,19.63
2023-10-19T11:38:05.219Z,20.60
2023-10-19T11:40:33.713Z,14.85
2023-10-19T11:43:02.353Z,10.90
2023-10-19T11:45:31.150Z,12.07
2023-10-19T11:47:59.707Z,14.57
2023-10-19T11:50:29.538Z,14.70
2023-10-19T11:52:58.470Z,14.60
2023-10-19T11:55:26.972Z,13.55
2023-10-19T11:57:55.125Z,16.25
2023-10-19T12:00:26.141Z,13.45
2023-10-19T12:02:54.613Z,12.35
2023-10-19T12:05:25.105Z,11.68
2023-10-19T12:07:55.622Z,14.18
2023-10-19T12:10:29.414Z,15.50
2023-10-19T12:13:02.135Z,14.25
2023-10-19T12:15:32.500Z,14.70
2023-10-19T12:18:01.045Z,13.15
2023-10-19T12:20:30.085Z,14.73
2023-10-19T12:23:00.059Z,13.93
2023-10-19T12:25:49.953Z,13.32
2023-10-19T12:28:22.786Z,12.43
2023-10-19T12:30:51.052Z,14.05
2023-10-19T12:33:21.239Z,14.10
2023-10-19T12:35:55.079Z,14.35
2023-10-19T12:38:25.050Z,12.95
2023-10-19T12:40:53.689Z,15.05
2023-10-19T12:43:23.619Z,16.05
2023-10-19T12:45:59.400Z,11.68
2023-10-19T12:48:36.436Z,14.75
2023-10-19T12:51:08.638Z,14.48
2023-10-19T12:53:39.903Z,13.23
2023-10-19T12:56:09.115Z,10.50
2023-10-19T12:58:41.084Z,10.23
2023-10-19T13:01:18.203Z,11.30
2023-10-19T13:04:26.566Z,12.90
2023-10-19T13:07:05.021Z,10.93
2023-10-19T13:16:11.580Z,10.77
2023-10-19T13:18:41.905Z,12.07
2023-10-19T13:21:13.063Z,12.13
2023-10-19T13:23:42.481Z,11.90
2023-10-19T13:26:19.106Z,10.13
2023-10-19T13:28:50.101Z,10.75
2023-10-19T13:31:20.576Z,14.63
2023-10-19T13:33:55.469Z,13.82
2023-10-19T13:36:26.501Z,13.48
2023-10-19T13:38:55.737Z,12.18
2023-10-19T13:41:26.900Z,9.48
2023-10-19T13:43:57.065Z,15.07
2023-10-19T13:46:26.763Z,9.60
2023-10-19T13:48:56.003Z,11.70
2023-10-19T13:51:24.176Z,12.38
2023-10-19T13:53:52.765Z,10.40
2023-10-19T13:56:20.943Z,12.27
2023-10-19T13:58:49.158Z,14.20
2023-10-19T14:01:20.231Z,10.93
2023-10-19T14:03:48.455Z,12.15
2023-10-19T14:06:18.044Z,10.23
2023-10-19T14:08:46.658Z,11.43
2023-10-19T14:11:15.857Z,14.75
2023-10-19T14:13:44.681Z,13.18
2023-10-19T14:16:13.065Z,14.43
2023-10-19T14:18:44.742Z,14.23
2023-10-19T14:21:15.093Z,28.05
2023-10-19T14:23:43.814Z,22.63
2023-10-19T14:26:12.975Z,57.55
2023-10-19T14:28:42.208Z,74.13
2023-10-19T14:31:12.113Z,91.85
2023-10-19T14:33:42.005Z,68.85
2023-10-19T14:36:13.611Z,72.05
2023-10-19T14:38:44.032Z,55.60
2023-10-19T14:41:12.217Z,75.30
2023-10-19T14:43:40.510Z,136.80
2023-10-19T14:46:08.810Z,69.55
2023-10-19T14:48:37.771Z,179.63
2023-10-19T14:51:08.481Z,61.63
2023-10-19T14:53:36.807Z,266.38
2023-10-19T14:56:07.315Z,127.07
2023-10-19T14:58:35.585Z,84.38
2023-10-19T15:01:03.796Z,195.75
2023-10-19T15:03:31.968Z,204.73
2023-10-19T15:06:00.904Z,167.10
2023-10-19T15:08:32.676Z,72.47
2023-10-19T15:11:03.469Z,41.53
2023-10-19T15:13:31.584Z,50.85
2023-10-19T15:16:00.099Z,29.38
2023-10-19T15:18:28.507Z,168.50
2023-10-19T15:20:56.878Z,199.35
2023-10-19T15:23:27.099Z,90.63
2023-10-19T15:25:56.966Z,76.05
2023-10-19T15:28:25.129Z,27.42
2023-10-19T15:30:54.307Z,52.65
2023-10-19T15:33:23.052Z,45.65
2023-10-19T15:35:52.472Z,11.90
2023-10-19T15:38:22.010Z,11.10
2023-10-19T15:40:54.064Z,11.32
2023-10-19T15:43:24.052Z,11.20
2023-10-19T15:45:52.336Z,12.27
2023-10-19T15:48:20.515Z,11.55
2023-10-19T15:50:49.094Z,13.85
2023-10-19T15:53:18.350Z,14.52
2023-10-19T15:55:48.221Z,17.95
2023-10-19T15:58:17.318Z,15.40
2023-10-19T16:00:48.217Z,17.92
2023-10-19T16:06:07.738Z,27.08
2023-10-19T16:08:37.213Z,20.60
2023-10-19T16:11:05.703Z,19.15
2023-10-19T16:13:34.135Z,25.20
2023-10-19T16:16:06.097Z,20.08
2023-10-19T16:18:37.916Z,21.48
2023-10-19T16:21:07.362Z,20.27
2023-10-19T16:23:35.676Z,17.05
2023-10-19T16:26:04.595Z,20.05
2023-10-19T16:28:34.151Z,17.38
2023-10-19T16:31:08.721Z,16.67
2023-10-19T16:33:37.087Z,17.25
2023-10-19T16:36:06.550Z,17.58
2023-10-19T16:38:34.872Z,49.17
2023-10-19T16:41:03.856Z,35.03
2023-10-19T16:43:32.099Z,44.20
2023-10-19T16:46:01.544Z,48.55
2023-10-19T16:48:31.205Z,42.53
2023-10-19T16:51:06.339Z,25.65
2023-10-19T16:53:34.725Z,20.98
2023-10-19T16:56:03.750Z,22.23
2023-10-19T16:58:32.089Z,22.33
2023-10-19T17:01:12.136Z,15.45
2023-10-19T17:03:42.837Z,18.80
2023-10-19T17:06:11.106Z,24.13
2023-10-19T17:08:40.178Z,32.45
2023-10-19T17:11:10.370Z,19.45
2023-10-19T17:13:39.194Z,18.65
2023-10-19T17:16:07.794Z,15.50
2023-10-19T17:18:36.455Z,14.10
2023-10-19T17:21:06.923Z,12.90
2023-10-19T17:23:36.762Z,13.88
2023-10-19T17:26:04.964Z,14.98
2023-10-19T17:28:33.353Z,13.00
2023-10-19T17:31:01.658Z,14.40
2023-10-19T17:33:32.409Z,13.48
2023-10-19T17:36:00.857Z,15.90
2023-10-19T17:38:33.730Z,16.42
2023-10-19T17:41:01.933Z,12.13
2023-10-19T17:43:30.262Z,16.00
2023-10-19T17:45:58.462Z,10.02
2023-10-19T17:48:27.341Z,9.70
2023-10-19T17:50:55.532Z,7.07
2023-10-19T17:53:24.619Z,7.95
2023-10-19T17:55:57.852Z,9.48
2023-10-19T17:58:26.518Z,7.82
2023-10-19T18:00:54.750Z,9.13
2023-10-19T18:03:25.865Z,9.18
2023-10-19T18:05:55.764Z,7.82
2023-10-19T18:08:33.558Z,8.68
2023-10-19T18:11:13.273Z,6.82
2023-10-19T18:13:42.001Z,7.38
2023-10-19T18:16:12.123Z,10.55
2023-10-19T18:18:40.618Z,7.85
2023-10-19T18:21:12.641Z,6.78
2023-10-19T18:23:40.982Z,8.25
2023-10-19T18:26:11.243Z,7.90
2023-10-19T18:28:43.256Z,11.95
2023-10-19T18:31:11.837Z,10.45
2023-10-19T18:33:42.171Z,7.55
2023-10-19T18:36:25.611Z,7.15
2023-10-19T18:38:56.278Z,7.75
2023-10-19T18:41:27.336Z,9.95
2023-10-19T18:43:59.690Z,10.65
2023-10-19T18:46:28.460Z,10.50
2023-10-19T18:48:56.694Z,9.77
2023-10-19T18:51:24.859Z,9.63
2023-10-19T18:53:53.116Z,9.30
2023-10-19T18:56:21.315Z,11.48
2023-10-19T18:58:50.973Z,10.35
2023-10-19T19:01:19.181Z,10.57
2023-10-19T19:03:47.404Z,10.95
2023-10-19T19:06:15.912Z,12.25
2023-10-19T19:08:44.117Z,12.85
2023-10-19T19:11:13.669Z,13.30
2023-10-19T19:13:43.213Z,14.68
2023-10-19T19:16:13.701Z,10.88
2023-10-19T19:18:42.480Z,13.85
2023-10-19T19:21:11.302Z,11.45
2023-10-19T19:23:42.064Z,12.20
2023-10-19T19:26:11.894Z,14.35
2023-10-19T19:28:43.986Z,13.40
2023-10-19T19:31:19.635Z,13.90
2023-10-19T19:33:48.968Z,14.85
2023-10-19T19:36:19.939Z,13.57
2023-10-19T19:38:48.806Z,14.43
2023-10-19T19:41:17.791Z,15.27
2023-10-19T19:43:46.478Z,14.82
2023-10-19T19:46:18.156Z,12.73
2023-10-19T19:48:46.674Z,14.13
2023-10-19T19:51:16.637Z,13.80
2023-10-19T19:53:46.153Z,14.32
2023-10-19T19:56:18.523Z,12.93
2023-10-19T19:58:46.870Z,18.30
2023-10-19T20:01:16.547Z,15.63
2023-10-19T20:03:44.960Z,13.52
2023-10-19T20:06:15.819Z,16.55
2023-10-19T20:08:44.255Z,16.45
2023-10-19T20:11:20.614Z,14.85
2023-10-19T20:13:49.303Z,12.30
2023-10-19T20:16:19.288Z,14.77
2023-10-19T20:18:47.658Z,13.70
2023-10-19T20:21:17.934Z,15.35
2023-10-19T20:23:46.205Z,13.25
2023-10-19T20:26:15.841Z,13.27
2023-10-19T20:28:44.309Z,15.02
2023-10-19T20:31:15.781Z,15.52
2023-10-19T20:33:45.928Z,14.63
2023-10-19T20:36:14.869Z,15.50
2023-10-19T20:38:43.142Z,13.75
2023-10-19T20:41:13.265Z,16.17
2023-10-19T20:43:44.081Z,14.55
2023-10-19T20:46:12.575Z,15.45
2023-10-19T20:48:41.647Z,14.55
2023-10-19T20:51:18.038Z,279.85
2023-10-19T20:53:47.311Z,54.67
2023-10-19T20:56:21.945Z,24.98
2023-10-19T20:58:50.208Z,18.25
2023-10-19T21:01:21.325Z,14.82
2023-10-19T21:03:49.555Z,16.70
2023-10-19T21:06:19.215Z,15.45
2023-10-19T21:08:47.471Z,13.68
2023-10-19T21:11:19.770Z,18.02
2023-10-19T21:13:49.184Z,14.77
2023-10-19T21:16:17.848Z,14.65
2023-10-19T21:18:46.233Z,14.20
2023-10-19T21:21:14.953Z,13.32
2023-10-19T21:23:44.582Z,17.77
2023-10-19T21:26:14.404Z,15.43
2023-10-19T21:28:42.901Z,14.88
2023-10-19T21:31:12.016Z,15.60
2023-10-19T21:33:40.846Z,14.82
2023-10-19T21:36:09.166Z,13.98
2023-10-19T21:38:39.239Z,14.30
2023-10-19T21:41:08.894Z,14.68
2023-10-19T21:43:37.366Z,13.15
2023-10-19T21:46:08.900Z,17.27
2023-10-19T21:48:37.082Z,13.77
2023-10-19T21:51:05.429Z,14.13
2023-10-19T21:53:34.069Z,19.30
2023-10-19T21:56:02.338Z,14.23
2023-10-19T21:58:32.397Z,15.10
2023-10-19T22:01:01.785Z,14.65
2023-10-19T22:03:30.538Z,16.05
2023-10-19T22:05:59.068Z,14.98
2023-10-19T22:08:28.357Z,14.40
2023-10-19T22:10:57.122Z,19.35
2023-10-19T22:13:25.445Z,14.85
2023-10-19T22:15:55.070Z,15.75
2023-10-19T22:18:24.342Z,15.80
2023-10-19T22:20:56.183Z,14.40
2023-10-19T22:23:25.071Z,14.75
2023-10-19T22:25:54.224Z,14.27
2023-10-19T22:28:22.546Z,16.83
2023-10-19T22:30:50.788Z,15.70
2023-10-19T22:33:20.517Z,16.90
2023-10-19T22:35:50.440Z,13.68
2023-10-19T22:38:18.895Z,13.75
2023-10-19T22:40:47.143Z,13.75
2023-10-19T22:43:15.515Z,14.35
2023-10-19T22:45:44.215Z,15.18
2023-10-19T22:48:12.577Z,16.83
2023-10-19T22:50:42.300Z,14.57
2023-10-19T22:53:11.008Z,15.02
2023-10-19T22:55:39.189Z,14.55
2023-10-19T22:58:07.390Z,13.73
2023-10-19T23:00:36.369Z,14.18
2023-10-19T23:03:04.979Z,12.45
2023-10-19T23:05:33.689Z,14.23
2023-10-19T23:08:03.422Z,12.20
2023-10-19T23:10:33.207Z,14.43
2023-10-19T23:13:02.263Z,15.48
2023-10-19T23:15:40.798Z,11.48
2023-10-19T23:18:11.677Z,12.95
2023-10-19T23:20:41.249Z,10.90
2023-10-19T23:23:14.138Z,12.63
2023-10-19T23:25:51.165Z,13.50
2023-10-19T23:28:19.629Z,11.40
2023-10-19T23:30:48.414Z,14.65
2023-10-19T23:33:16.652Z,13.15
2023-10-19T23:35:45.084Z,13.13
2023-10-19T23:38:16.225Z,12.60
2023-10-19T23:40:44.571Z,11.73
2023-10-19T23:43:12.953Z,11.38
2023-10-19T23:45:41.210Z,11.82
2023-10-19T23:48:12.280Z,10.30
2023-10-19T23:50:40.854Z,11.85
2023-10-19T23:53:11.817Z,10.25
2023-10-19T23:55:42.237Z,11.43
2023-10-19T23:58:10.448Z,9.68
